sensor_id;sensor_type;location;lat;lon;timestamp;temperature;humidity
14210;DHT22;7188;56.070;12.698;2023-11-18T00:00:31;-0.50;99.90
14210;DHT22;7188;56.070;12.698;2023-11-18T00:02:57;-0.60;99.90
14210;DHT22;7188;56.070;12.698;2023-11-18T00:05:24;-0.60;99.90
14210;DHT22;7188;56.070;12.698;2023-11-18T00:07:49;-0.60;99.90
14210;DHT22;7188;56.070;12.698;2023-11-18T00:10:15;-0.50;99.90
14210;DHT22;7188;56.070;12.698;2023-11-18T00:12:41;-0.60;99.90
14210;DHT22;7188;56.070;12.698;2023-11-18T00:15:07;-0.60;99.90
14210;DHT22;7188;56.070;12.698;2023-11-18T00:17:37;-0.60;99.90
14210;DHT22;7188;56.070;12.698;2023-11-18T00:20:15;-0.60;99.90
14210;DHT22;7188;56.070;12.698;2023-11-18T00:22:42;-0.60;99.90
14210;DHT22;7188;56.070;12.698;2023-11-18T00:25:08;-0.60;99.90
14210;DHT22;7188;56.070;12.698;2023-11-18T00:27:34;-0.50;99.90
14210;DHT22;7188;56.070;12.698;2023-11-18T00:30:04;-0.60;99.90
14210;DHT22;7188;56.070;12.698;2023-11-18T00:32:39;-0.60;99.90
14210;DHT22;7188;56.070;12.698;2023-11-18T00:35:05;-0.50;99.90
14210;DHT22;7188;56.070;12.698;2023-11-18T00:37:32;-0.50;99.90
14210;DHT22;7188;56.070;12.698;2023-11-18T00:39:57;-0.50;99.90
14210;DHT22;7188;56.070;12.698;2023-11-18T00:42:23;-0.50;99.90
14210;DHT22;7188;56.070;12.698;2023-11-18T00:44:49;-0.50;99.90
14210;DHT22;7188;56.070;12.698;2023-11-18T00:47:15;-0.50;99.90
14210;DHT22;7188;56.070;12.698;2023-11-18T00:49:41;-0.50;99.90
14210;DHT22;7188;56.070;12.698;2023-11-18T00:52:06;-0.50;99.90
14210;DHT22;7188;56.070;12.698;2023-11-18T00:54:32;-0.50;99.90
14210;DHT22;7188;56.070;12.698;2023-11-18T00:56:58;-0.50;99.90
14210;DHT22;7188;56.070;12.698;2023-11-18T00:59:23;-0.50;99.90
14210;DHT22;7188;56.070;12.698;2023-11-18T01:01:49;-0.50;99.90
14210;DHT22;7188;56.070;12.698;2023-11-18T01:04:15;-0.50;99.90
14210;DHT22;7188;56.070;12.698;2023-11-18T01:06:42;-0.50;99.90
14210;DHT22;7188;56.070;12.698;2023-11-18T01:09:08;-0.50;99.90
14210;DHT22;7188;56.070;12.698;2023-11-18T01:11:35;-0.60;99.90
14210;DHT22;7188;56.070;12.698;2023-11-18T01:14:01;-0.60;99.90
14210;DHT22;7188;56.070;12.698;2023-11-18T01:16:27;-0.60;99.90
14210;DHT22;7188;56.070;12.698;2023-11-18T01:18:54;-0.60;99.90
14210;DHT22;7188;56.070;12.698;2023-11-18T01:21:20;-0.70;99.90
14210;DHT22;7188;56.070;12.698;2023-11-18T01:23:45;-0.60;99.90
14210;DHT22;7188;56.070;12.698;2023-11-18T01:26:11;-0.60;99.90
14210;DHT22;7188;56.070;12.698;2023-11-18T01:28:40;-0.60;99.90
14210;DHT22;7188;56.070;12.698;2023-11-18T01:31:11;-0.60;99.90
14210;DHT22;7188;56.070;12.698;2023-11-18T01:33:37;-0.60;99.90
14210;DHT22;7188;56.070;12.698;2023-11-18T01:36:06;-0.60;99.90
14210;DHT22;7188;56.070;12.698;2023-11-18T01:38:32;-0.40;99.90
14210;DHT22;7188;56.070;12.698;2023-11-18T01:40:57;-0.40;99.90
14210;DHT22;7188;56.070;12.698;2023-11-18T01:43:23;-0.60;99.90
14210;DHT22;7188;56.070;12.698;2023-11-18T01:45:48;-0.40;99.90
14210;DHT22;7188;56.070;12.698;2023-11-18T01:48:15;-0.40;99.90
14210;DHT22;7188;56.070;12.698;2023-11-18T01:50:44;-0.30;99.90
14210;DHT22;7188;56.070;12.698;2023-11-18T01:53:13;-0.40;99.90
14210;DHT22;7188;56.070;12.698;2023-11-18T01:55:39;-0.50;99.90
14210;DHT22;7188;56.070;12.698;2023-11-18T01:58:05;-0.60;99.90
14210;DHT22;7188;56.070;12.698;2023-11-18T02:00:37;-0.30;99.90
14210;DHT22;7188;56.070;12.698;2023-11-18T02:03:05;-0.10;99.90
14210;DHT22;7188;56.070;12.698;2023-11-18T02:05:31;-0.30;99.90
14210;DHT22;7188;56.070;12.698;2023-11-18T02:08:01;-0.40;99.90
14210;DHT22;7188;56.070;12.698;2023-11-18T02:10:54;-0.50;99.90
14210;DHT22;7188;56.070;12.698;2023-11-18T02:13:23;-0.30;99.90
14210;DHT22;7188;56.070;12.698;2023-11-18T02:15:53;-0.50;99.90
14210;DHT22;7188;56.070;12.698;2023-11-18T02:18:26;-0.50;99.90
14210;DHT22;7188;56.070;12.698;2023-11-18T02:20:54;-0.50;99.90
14210;DHT22;7188;56.070;12.698;2023-11-18T02:23:23;-0.50;99.90
14210;DHT22;7188;56.070;12.698;2023-11-18T02:25:49;-0.60;99.90
14210;DHT22;7188;56.070;12.698;2023-11-18T02:28:14;-0.30;99.90
14210;DHT22;7188;56.070;12.698;2023-11-18T02:30:41;-0.10;99.90
14210;DHT22;7188;56.070;12.698;2023-11-18T02:33:12;-0.10;99.90
14210;DHT22;7188;56.070;12.698;2023-11-18T02:35:52;0.00;99.90
14210;DHT22;7188;56.070;12.698;2023-11-18T02:38:22;0.00;99.90
14210;DHT22;7188;56.070;12.698;2023-11-18T02:40:49;-0.10;99.90
14210;DHT22;7188;56.070;12.698;2023-11-18T02:43:18;0.00;99.90
14210;DHT22;7188;56.070;12.698;2023-11-18T02:45:45;0.30;99.90
14210;DHT22;7188;56.070;12.698;2023-11-18T02:48:12;0.10;99.90
14210;DHT22;7188;56.070;12.698;2023-11-18T02:50:40;0.00;99.90
14210;DHT22;7188;56.070;12.698;2023-11-18T02:53:06;-0.40;99.90
14210;DHT22;7188;56.070;12.698;2023-11-18T02:55:35;-0.30;99.90
14210;DHT22;7188;56.070;12.698;2023-11-18T02:58:00;-0.10;99.90
14210;DHT22;7188;56.070;12.698;2023-11-18T03:00:27;-0.30;99.90
14210;DHT22;7188;56.070;12.698;2023-11-18T03:02:54;-0.70;99.90
14210;DHT22;7188;56.070;12.698;2023-11-18T03:05:20;-1.00;99.90
14210;DHT22;7188;56.070;12.698;2023-11-18T03:07:47;-1.10;99.90
14210;DHT22;7188;56.070;12.698;2023-11-18T03:10:22;-1.30;99.90
14210;DHT22;7188;56.070;12.698;2023-11-18T03:15:14;-1.30;99.90
14210;DHT22;7188;56.070;12.698;2023-11-18T03:17:46;-0.70;99.90
14210;DHT22;7188;56.070;12.698;2023-11-18T03:20:14;-0.50;99.90
14210;DHT22;7188;56.070;12.698;2023-11-18T03:22:49;-0.60;99.90
14210;DHT22;7188;56.070;12.698;2023-11-18T03:25:15;-1.00;99.90
14210;DHT22;7188;56.070;12.698;2023-11-18T03:27:42;-1.00;99.90
14210;DHT22;7188;56.070;12.698;2023-11-18T03:30:08;-1.00;99.90
14210;DHT22;7188;56.070;12.698;2023-11-18T03:32:38;-0.70;99.90
14210;DHT22;7188;56.070;12.698;2023-11-18T03:35:06;-0.60;99.90
14210;DHT22;7188;56.070;12.698;2023-11-18T03:37:37;-0.60;99.90
14210;DHT22;7188;56.070;12.698;2023-11-18T03:40:10;-0.20;99.90
14210;DHT22;7188;56.070;12.698;2023-11-18T03:42:37;-0.30;99.90
14210;DHT22;7188;56.070;12.698;2023-11-18T03:45:03;-0.30;99.90
14210;DHT22;7188;56.070;12.698;2023-11-18T03:47:29;-0.50;99.90
14210;DHT22;7188;56.070;12.698;2023-11-18T03:49:56;-0.90;99.90
14210;DHT22;7188;56.070;12.698;2023-11-18T03:52:22;-0.60;99.90
14210;DHT22;7188;56.070;12.698;2023-11-18T03:54:48;-0.70;99.90
14210;DHT22;7188;56.070;12.698;2023-11-18T03:57:13;-0.70;99.90
14210;DHT22;7188;56.070;12.698;2023-11-18T03:59:39;-0.60;99.90
14210;DHT22;7188;56.070;12.698;2023-11-18T04:02:06;-0.20;99.90
14210;DHT22;7188;56.070;12.698;2023-11-18T04:04:32;-0.20;99.90
14210;DHT22;7188;56.070;12.698;2023-11-18T04:06:58;-0.20;99.90
14210;DHT22;7188;56.070;12.698;2023-11-18T04:09:26;-0.20;99.90
14210;DHT22;7188;56.070;12.698;2023-11-18T04:11:52;-0.20;99.90
14210;DHT22;7188;56.070;12.698;2023-11-18T04:14:18;-0.30;99.90
14210;DHT22;7188;56.070;12.698;2023-11-18T04:16:45;-0.70;99.90
14210;DHT22;7188;56.070;12.698;2023-11-18T04:19:11;-0.60;99.90
14210;DHT22;7188;56.070;12.698;2023-11-18T04:21:37;-0.70;99.90
14210;DHT22;7188;56.070;12.698;2023-11-18T04:24:04;-0.80;99.90
14210;DHT22;7188;56.070;12.698;2023-11-18T04:26:31;-0.80;99.90
14210;DHT22;7188;56.070;12.698;2023-11-18T04:28:57;-0.80;99.90
14210;DHT22;7188;56.070;12.698;2023-11-18T04:31:24;-0.80;99.90
14210;DHT22;7188;56.070;12.698;2023-11-18T04:33:49;-0.50;99.90
14210;DHT22;7188;56.070;12.698;2023-11-18T04:36:15;-0.20;99.90
14210;DHT22;7188;56.070;12.698;2023-11-18T04:38:42;-0.10;99.90
14210;DHT22;7188;56.070;12.698;2023-11-18T04:41:08;0.10;99.90
14210;DHT22;7188;56.070;12.698;2023-11-18T04:43:35;0.20;99.90
14210;DHT22;7188;56.070;12.698;2023-11-18T04:46:00;0.20;99.90
14210;DHT22;7188;56.070;12.698;2023-11-18T04:48:26;0.30;99.90
14210;DHT22;7188;56.070;12.698;2023-11-18T04:50:51;0.00;99.90
14210;DHT22;7188;56.070;12.698;2023-11-18T04:53:17;-0.30;99.90
14210;DHT22;7188;56.070;12.698;2023-11-18T04:55:43;-0.60;99.90
14210;DHT22;7188;56.070;12.698;2023-11-18T04:58:08;-0.50;99.90
14210;DHT22;7188;56.070;12.698;2023-11-18T05:00:38;-0.70;99.90
14210;DHT22;7188;56.070;12.698;2023-11-18T05:03:07;-0.60;99.90
14210;DHT22;7188;56.070;12.698;2023-11-18T05:05:36;-0.40;99.90
14210;DHT22;7188;56.070;12.698;2023-11-18T05:08:06;-0.20;99.90
14210;DHT22;7188;56.070;12.698;2023-11-18T05:10:35;-0.20;99.90
14210;DHT22;7188;56.070;12.698;2023-11-18T05:13:02;-0.20;99.90
14210;DHT22;7188;56.070;12.698;2023-11-18T05:15:27;-0.30;99.90
14210;DHT22;7188;56.070;12.698;2023-11-18T05:17:54;-0.40;99.90
14210;DHT22;7188;56.070;12.698;2023-11-18T05:20:21;-0.40;99.90
14210;DHT22;7188;56.070;12.698;2023-11-18T05:22:47;-0.20;99.90
14210;DHT22;7188;56.070;12.698;2023-11-18T05:25:13;-0.30;99.90
14210;DHT22;7188;56.070;12.698;2023-11-18T05:27:39;-0.40;99.90
14210;DHT22;7188;56.070;12.698;2023-11-18T05:30:09;-0.40;99.90
14210;DHT22;7188;56.070;12.698;2023-11-18T05:32:35;-0.10;99.90
14210;DHT22;7188;56.070;12.698;2023-11-18T05:35:01;-0.20;99.90
14210;DHT22;7188;56.070;12.698;2023-11-18T05:37:26;-0.50;99.90
14210;DHT22;7188;56.070;12.698;2023-11-18T05:39:55;-0.40;99.90
14210;DHT22;7188;56.070;12.698;2023-11-18T05:42:32;-0.20;99.90
14210;DHT22;7188;56.070;12.698;2023-11-18T05:44:58;-0.40;99.90
14210;DHT22;7188;56.070;12.698;2023-11-18T05:47:28;-0.70;99.90
14210;DHT22;7188;56.070;12.698;2023-11-18T05:49:54;-0.80;99.90
14210;DHT22;7188;56.070;12.698;2023-11-18T05:52:20;-0.90;99.90
14210;DHT22;7188;56.070;12.698;2023-11-18T05:54:46;-1.00;99.90
14210;DHT22;7188;56.070;12.698;2023-11-18T05:57:16;-0.70;99.90
14210;DHT22;7188;56.070;12.698;2023-11-18T05:59:45;-0.70;99.90
14210;DHT22;7188;56.070;12.698;2023-11-18T06:02:13;-0.70;99.90
14210;DHT22;7188;56.070;12.698;2023-11-18T06:04:44;-0.30;99.90
14210;DHT22;7188;56.070;12.698;2023-11-18T06:07:10;-0.60;99.90
14210;DHT22;7188;56.070;12.698;2023-11-18T06:09:39;-1.00;99.90
14210;DHT22;7188;56.070;12.698;2023-11-18T06:12:08;-0.80;99.90
14210;DHT22;7188;56.070;12.698;2023-11-18T06:14:38;-0.60;99.90
14210;DHT22;7188;56.070;12.698;2023-11-18T06:17:04;-0.90;99.90
14210;DHT22;7188;56.070;12.698;2023-11-18T06:19:32;-1.40;99.90
14210;DHT22;7188;56.070;12.698;2023-11-18T06:21:58;-1.80;99.90
14210;DHT22;7188;56.070;12.698;2023-11-18T06:24:24;-1.30;99.90
14210;DHT22;7188;56.070;12.698;2023-11-18T06:26:49;-1.70;99.90
14210;DHT22;7188;56.070;12.698;2023-11-18T06:29:15;-1.90;99.90
14210;DHT22;7188;56.070;12.698;2023-11-18T06:31:41;-2.10;99.90
14210;DHT22;7188;56.070;12.698;2023-11-18T06:34:08;-1.60;99.90
14210;DHT22;7188;56.070;12.698;2023-11-18T06:36:33;-1.30;99.90
14210;DHT22;7188;56.070;12.698;2023-11-18T06:38:59;-1.40;99.90
14210;DHT22;7188;56.070;12.698;2023-11-18T06:41:25;-0.90;99.90
14210;DHT22;7188;56.070;12.698;2023-11-18T06:43:59;-1.00;99.90
14210;DHT22;7188;56.070;12.698;2023-11-18T06:46:32;-1.20;99.90
14210;DHT22;7188;56.070;12.698;2023-11-18T06:49:18;-1.40;99.90
14210;DHT22;7188;56.070;12.698;2023-11-18T06:51:44;-1.10;99.90
14210;DHT22;7188;56.070;12.698;2023-11-18T06:54:09;-1.10;99.90
14210;DHT22;7188;56.070;12.698;2023-11-18T06:56:42;-0.90;99.90
14210;DHT22;7188;56.070;12.698;2023-11-18T06:59:09;-1.10;99.90
14210;DHT22;7188;56.070;12.698;2023-11-18T07:01:41;-1.20;99.90
14210;DHT22;7188;56.070;12.698;2023-11-18T07:04:09;-1.40;99.90
14210;DHT22;7188;56.070;12.698;2023-11-18T07:06:34;-1.70;99.90
14210;DHT22;7188;56.070;12.698;2023-11-18T07:09:04;-1.70;99.90
14210;DHT22;7188;56.070;12.698;2023-11-18T07:11:38;-1.40;99.90
14210;DHT22;7188;56.070;12.698;2023-11-18T07:14:03;-1.20;99.90
14210;DHT22;7188;56.070;12.698;2023-11-18T07:16:29;-1.40;99.90
14210;DHT22;7188;56.070;12.698;2023-11-18T07:18:55;-1.60;99.90
14210;DHT22;7188;56.070;12.698;2023-11-18T07:21:20;-1.90;99.90
14210;DHT22;7188;56.070;12.698;2023-11-18T07:23:46;-2.10;99.90
14210;DHT22;7188;56.070;12.698;2023-11-18T07:26:12;-2.20;99.90
14210;DHT22;7188;56.070;12.698;2023-11-18T07:28:39;-2.30;99.90
14210;DHT22;7188;56.070;12.698;2023-11-18T07:31:05;-2.30;99.90
14210;DHT22;7188;56.070;12.698;2023-11-18T07:33:31;-2.40;99.90
14210;DHT22;7188;56.070;12.698;2023-11-18T07:35:58;-2.50;99.90
14210;DHT22;7188;56.070;12.698;2023-11-18T07:38:23;-2.50;99.90
14210;DHT22;7188;56.070;12.698;2023-11-18T07:40:49;-2.50;99.90
14210;DHT22;7188;56.070;12.698;2023-11-18T07:43:18;-2.40;99.90
14210;DHT22;7188;56.070;12.698;2023-11-18T07:45:47;-2.10;99.90
14210;DHT22;7188;56.070;12.698;2023-11-18T07:48:17;-1.40;99.90
14210;DHT22;7188;56.070;12.698;2023-11-18T07:50:43;-1.10;99.90
14210;DHT22;7188;56.070;12.698;2023-11-18T07:53:15;-1.00;99.90
14210;DHT22;7188;56.070;12.698;2023-11-18T07:55:41;-0.60;99.90
14210;DHT22;7188;56.070;12.698;2023-11-18T07:58:11;-0.40;99.90
14210;DHT22;7188;56.070;12.698;2023-11-18T08:00:38;-0.20;99.90
14210;DHT22;7188;56.070;12.698;2023-11-18T08:03:07;-0.30;99.90
14210;DHT22;7188;56.070;12.698;2023-11-18T08:05:40;-0.20;99.90
14210;DHT22;7188;56.070;12.698;2023-11-18T08:08:07;-0.10;99.90
14210;DHT22;7188;56.070;12.698;2023-11-18T08:10:37;-0.40;99.90
14210;DHT22;7188;56.070;12.698;2023-11-18T08:13:09;-0.70;99.90
14210;DHT22;7188;56.070;12.698;2023-11-18T08:15:38;-0.90;99.90
14210;DHT22;7188;56.070;12.698;2023-11-18T08:18:04;-1.00;99.90
14210;DHT22;7188;56.070;12.698;2023-11-18T08:20:30;-1.00;99.90
14210;DHT22;7188;56.070;12.698;2023-11-18T08:22:56;-0.90;99.90
14210;DHT22;7188;56.070;12.698;2023-11-18T08:25:21;-0.90;99.90
14210;DHT22;7188;56.070;12.698;2023-11-18T08:27:48;-0.80;99.90
14210;DHT22;7188;56.070;12.698;2023-11-18T08:30:14;-0.80;99.90
14210;DHT22;7188;56.070;12.698;2023-11-18T08:32:40;-0.70;99.90
14210;DHT22;7188;56.070;12.698;2023-11-18T08:35:10;-0.60;99.90
14210;DHT22;7188;56.070;12.698;2023-11-18T08:37:39;-0.60;99.90
14210;DHT22;7188;56.070;12.698;2023-11-18T08:40:06;-0.40;99.90
14210;DHT22;7188;56.070;12.698;2023-11-18T08:42:51;-0.40;99.90
14210;DHT22;7188;56.070;12.698;2023-11-18T08:47:55;-0.20;99.90
14210;DHT22;7188;56.070;12.698;2023-11-18T08:50:21;-0.10;99.90
14210;DHT22;7188;56.070;12.698;2023-11-18T08:52:50;0.00;99.90
14210;DHT22;7188;56.070;12.698;2023-11-18T08:55:19;0.10;99.90
14210;DHT22;7188;56.070;12.698;2023-11-18T08:57:49;0.10;99.90
14210;DHT22;7188;56.070;12.698;2023-11-18T09:00:31;0.20;99.90
14210;DHT22;7188;56.070;12.698;2023-11-18T09:03:14;0.20;99.90
14210;DHT22;7188;56.070;12.698;2023-11-18T09:05:56;0.20;99.90
14210;DHT22;7188;56.070;12.698;2023-11-18T09:11:04;0.30;99.90
14210;DHT22;7188;56.070;12.698;2023-11-18T09:13:33;0.30;99.90
14210;DHT22;7188;56.070;12.698;2023-11-18T09:16:07;0.40;99.90
14210;DHT22;7188;56.070;12.698;2023-11-18T09:18:37;0.40;99.90
14210;DHT22;7188;56.070;12.698;2023-11-18T09:21:05;0.50;99.90
14210;DHT22;7188;56.070;12.698;2023-11-18T09:23:33;0.60;99.90
14210;DHT22;7188;56.070;12.698;2023-11-18T09:26:03;0.60;99.90
14210;DHT22;7188;56.070;12.698;2023-11-18T09:28:33;0.70;99.90
14210;DHT22;7188;56.070;12.698;2023-11-18T09:31:01;0.70;99.90
14210;DHT22;7188;56.070;12.698;2023-11-18T09:33:30;0.70;99.90
14210;DHT22;7188;56.070;12.698;2023-11-18T09:35:59;0.80;99.90
14210;DHT22;7188;56.070;12.698;2023-11-18T09:38:32;0.80;99.90
14210;DHT22;7188;56.070;12.698;2023-11-18T09:41:01;0.80;99.90
14210;DHT22;7188;56.070;12.698;2023-11-18T09:43:33;0.90;99.90
14210;DHT22;7188;56.070;12.698;2023-11-18T09:46:18;1.00;99.90
14210;DHT22;7188;56.070;12.698;2023-11-18T09:51:43;1.10;99.90
14210;DHT22;7188;56.070;12.698;2023-11-18T09:54:19;1.20;99.90
14210;DHT22;7188;56.070;12.698;2023-11-18T09:57:13;1.20;99.90
14210;DHT22;7188;56.070;12.698;2023-11-18T10:00:04;1.30;99.90
14210;DHT22;7188;56.070;12.698;2023-11-18T10:02:46;1.40;99.90
14210;DHT22;7188;56.070;12.698;2023-11-18T10:05:12;1.50;99.90
14210;DHT22;7188;56.070;12.698;2023-11-18T10:07:42;1.50;99.90
14210;DHT22;7188;56.070;12.698;2023-11-18T10:10:08;1.60;99.90
14210;DHT22;7188;56.070;12.698;2023-11-18T10:12:52;1.60;99.90
14210;DHT22;7188;56.070;12.698;2023-11-18T10:15:19;1.60;99.90
14210;DHT22;7188;56.070;12.698;2023-11-18T10:17:50;1.60;99.90
14210;DHT22;7188;56.070;12.698;2023-11-18T10:20:44;1.70;99.90
14210;DHT22;7188;56.070;12.698;2023-11-18T10:23:11;1.80;99.90
14210;DHT22;7188;56.070;12.698;2023-11-18T10:28:26;1.90;99.90
14210;DHT22;7188;56.070;12.698;2023-11-18T10:33:27;2.00;99.90
14210;DHT22;7188;56.070;12.698;2023-11-18T10:35:59;2.00;99.90
14210;DHT22;7188;56.070;12.698;2023-11-18T10:38:32;2.10;99.90
14210;DHT22;7188;56.070;12.698;2023-11-18T10:41:02;2.10;99.90
14210;DHT22;7188;56.070;12.698;2023-11-18T10:43:28;2.10;99.90
14210;DHT22;7188;56.070;12.698;2023-11-18T10:46:07;2.10;99.90
14210;DHT22;7188;56.070;12.698;2023-11-18T10:48:41;2.10;99.90
14210;DHT22;7188;56.070;12.698;2023-11-18T10:51:10;2.10;99.90
14210;DHT22;7188;56.070;12.698;2023-11-18T10:53:42;2.20;99.90
14210;DHT22;7188;56.070;12.698;2023-11-18T10:56:22;2.30;99.90
14210;DHT22;7188;56.070;12.698;2023-11-18T10:59:04;2.30;99.90
14210;DHT22;7188;56.070;12.698;2023-11-18T11:01:35;2.30;99.90
14210;DHT22;7188;56.070;12.698;2023-11-18T11:04:11;2.40;99.90
14210;DHT22;7188;56.070;12.698;2023-11-18T11:06:45;2.40;99.90
14210;DHT22;7188;56.070;12.698;2023-11-18T11:09:20;2.50;99.90
14210;DHT22;7188;56.070;12.698;2023-11-18T11:11:56;2.50;99.90
14210;DHT22;7188;56.070;12.698;2023-11-18T11:14:33;2.50;99.90
14210;DHT22;7188;56.070;12.698;2023-11-18T11:17:13;2.60;99.90
14210;DHT22;7188;56.070;12.698;2023-11-18T11:19:53;2.70;99.90
14210;DHT22;7188;56.070;12.698;2023-11-18T11:22:38;2.70;99.90
14210;DHT22;7188;56.070;12.698;2023-11-18T11:25:22;2.70;99.90
14210;DHT22;7188;56.070;12.698;2023-11-18T11:28:17;2.80;99.90
14210;DHT22;7188;56.070;12.698;2023-11-18T11:31:08;2.80;99.90
14210;DHT22;7188;56.070;12.698;2023-11-18T11:33:44;2.80;99.90
14210;DHT22;7188;56.070;12.698;2023-11-18T11:36:17;2.90;99.90
14210;DHT22;7188;56.070;12.698;2023-11-18T11:38:54;2.90;99.90
14210;DHT22;7188;56.070;12.698;2023-11-18T11:41:22;3.00;99.90
14210;DHT22;7188;56.070;12.698;2023-11-18T11:43:52;2.90;99.90
14210;DHT22;7188;56.070;12.698;2023-11-18T11:46:22;2.90;99.90
14210;DHT22;7188;56.070;12.698;2023-11-18T11:48:50;2.90;99.90
14210;DHT22;7188;56.070;12.698;2023-11-18T11:51:25;2.90;99.90
14210;DHT22;7188;56.070;12.698;2023-11-18T11:54:04;2.90;99.90
14210;DHT22;7188;56.070;12.698;2023-11-18T11:56:43;2.80;99.90
14210;DHT22;7188;56.070;12.698;2023-11-18T11:59:09;2.80;99.90
14210;DHT22;7188;56.070;12.698;2023-11-18T12:01:38;2.70;99.90
14210;DHT22;7188;56.070;12.698;2023-11-18T12:04:05;2.90;99.90
14210;DHT22;7188;56.070;12.698;2023-11-18T12:06:42;2.90;99.90
14210;DHT22;7188;56.070;12.698;2023-11-18T12:09:09;2.90;99.90
14210;DHT22;7188;56.070;12.698;2023-11-18T12:11:36;3.00;99.90
14210;DHT22;7188;56.070;12.698;2023-11-18T12:14:08;3.10;99.90
14210;DHT22;7188;56.070;12.698;2023-11-18T12:22:12;3.10;99.90
14210;DHT22;7188;56.070;12.698;2023-11-18T12:35:29;3.10;99.90
14210;DHT22;7188;56.070;12.698;2023-11-18T12:40:56;3.00;99.90
14210;DHT22;7188;56.070;12.698;2023-11-18T12:43:49;3.00;99.90
14210;DHT22;7188;56.070;12.698;2023-11-18T12:49:13;3.10;99.90
14210;DHT22;7188;56.070;12.698;2023-11-18T12:51:41;3.20;99.90
14210;DHT22;7188;56.070;12.698;2023-11-18T12:54:09;3.20;99.90
14210;DHT22;7188;56.070;12.698;2023-11-18T12:56:38;3.10;99.90
14210;DHT22;7188;56.070;12.698;2023-11-18T12:59:04;3.10;99.90
14210;DHT22;7188;56.070;12.698;2023-11-18T13:01:33;3.10;99.90
14210;DHT22;7188;56.070;12.698;2023-11-18T13:04:02;3.10;99.90
14210;DHT22;7188;56.070;12.698;2023-11-18T13:06:28;3.10;99.90
14210;DHT22;7188;56.070;12.698;2023-11-18T13:08:54;3.10;99.90
14210;DHT22;7188;56.070;12.698;2023-11-18T13:11:22;3.10;99.90
14210;DHT22;7188;56.070;12.698;2023-11-18T13:13:51;3.10;99.90
14210;DHT22;7188;56.070;12.698;2023-11-18T13:16:16;3.10;99.90
14210;DHT22;7188;56.070;12.698;2023-11-18T13:18:47;3.00;99.90
14210;DHT22;7188;56.070;12.698;2023-11-18T13:21:18;3.10;99.90
14210;DHT22;7188;56.070;12.698;2023-11-18T13:23:48;3.10;99.90
14210;DHT22;7188;56.070;12.698;2023-11-18T13:26:15;3.10;99.90
14210;DHT22;7188;56.070;12.698;2023-11-18T13:28:42;3.10;99.90
14210;DHT22;7188;56.070;12.698;2023-11-18T13:31:09;3.10;99.90
14210;DHT22;7188;56.070;12.698;2023-11-18T13:33:47;3.10;99.90
14210;DHT22;7188;56.070;12.698;2023-11-18T13:36:14;3.00;99.90
14210;DHT22;7188;56.070;12.698;2023-11-18T13:38:41;3.00;99.90
14210;DHT22;7188;56.070;12.698;2023-11-18T13:41:10;3.00;99.90
14210;DHT22;7188;56.070;12.698;2023-11-18T13:43:45;3.00;99.90
14210;DHT22;7188;56.070;12.698;2023-11-18T13:46:14;2.90;99.90
14210;DHT22;7188;56.070;12.698;2023-11-18T13:48:47;2.90;99.90
14210;DHT22;7188;56.070;12.698;2023-11-18T13:51:15;2.90;99.90
14210;DHT22;7188;56.070;12.698;2023-11-18T13:53:41;2.90;99.90
14210;DHT22;7188;56.070;12.698;2023-11-18T13:56:10;2.90;99.90
14210;DHT22;7188;56.070;12.698;2023-11-18T13:58:36;2.90;99.90
14210;DHT22;7188;56.070;12.698;2023-11-18T14:01:09;2.80;99.90
14210;DHT22;7188;56.070;12.698;2023-11-18T14:03:36;2.80;99.90
14210;DHT22;7188;56.070;12.698;2023-11-18T14:06:05;2.70;99.90
14210;DHT22;7188;56.070;12.698;2023-11-18T14:08:30;2.60;99.90
14210;DHT22;7188;56.070;12.698;2023-11-18T14:10:56;2.60;99.90
14210;DHT22;7188;56.070;12.698;2023-11-18T14:13:22;2.60;99.90
14210;DHT22;7188;56.070;12.698;2023-11-18T14:15:48;2.50;99.90
14210;DHT22;7188;56.070;12.698;2023-11-18T14:18:20;2.50;99.90
14210;DHT22;7188;56.070;12.698;2023-11-18T14:20:46;2.50;99.90
14210;DHT22;7188;56.070;12.698;2023-11-18T14:23:13;2.40;99.90
14210;DHT22;7188;56.070;12.698;2023-11-18T14:25:39;2.50;99.90
14210;DHT22;7188;56.070;12.698;2023-11-18T14:28:05;2.50;99.90
14210;DHT22;7188;56.070;12.698;2023-11-18T14:30:34;2.40;99.90
14210;DHT22;7188;56.070;12.698;2023-11-18T14:33:00;2.40;99.90
14210;DHT22;7188;56.070;12.698;2023-11-18T14:35:25;2.40;99.90
14210;DHT22;7188;56.070;12.698;2023-11-18T14:37:51;2.30;99.90
14210;DHT22;7188;56.070;12.698;2023-11-18T14:40:17;2.30;99.90
14210;DHT22;7188;56.070;12.698;2023-11-18T14:42:46;2.20;99.90
14210;DHT22;7188;56.070;12.698;2023-11-18T14:45:16;2.20;99.90
14210;DHT22;7188;56.070;12.698;2023-11-18T14:47:42;2.00;99.90
14210;DHT22;7188;56.070;12.698;2023-11-18T14:50:13;1.90;99.90
14210;DHT22;7188;56.070;12.698;2023-11-18T14:52:52;1.60;99.90
14210;DHT22;7188;56.070;12.698;2023-11-18T14:55:28;1.60;99.90
14210;DHT22;7188;56.070;12.698;2023-11-18T14:57:54;1.80;99.90
14210;DHT22;7188;56.070;12.698;2023-11-18T15:00:21;1.60;99.90
14210;DHT22;7188;56.070;12.698;2023-11-18T15:02:57;1.70;99.90
14210;DHT22;7188;56.070;12.698;2023-11-18T15:05:23;1.60;99.90
14210;DHT22;7188;56.070;12.698;2023-11-18T15:07:53;1.50;99.90
14210;DHT22;7188;56.070;12.698;2023-11-18T15:10:24;1.40;99.90
14210;DHT22;7188;56.070;12.698;2023-11-18T15:12:51;1.30;99.90
14210;DHT22;7188;56.070;12.698;2023-11-18T15:15:23;1.30;99.90
14210;DHT22;7188;56.070;12.698;2023-11-18T15:18:02;1.20;99.90
14210;DHT22;7188;56.070;12.698;2023-11-18T15:20:29;1.20;99.90
14210;DHT22;7188;56.070;12.698;2023-11-18T15:22:55;1.10;99.90
14210;DHT22;7188;56.070;12.698;2023-11-18T15:25:21;1.00;99.90
14210;DHT22;7188;56.070;12.698;2023-11-18T15:27:47;1.00;99.90
14210;DHT22;7188;56.070;12.698;2023-11-18T15:30:16;1.00;99.90
14210;DHT22;7188;56.070;12.698;2023-11-18T15:32:44;1.00;99.90
14210;DHT22;7188;56.070;12.698;2023-11-18T15:35:11;0.90;99.90
14210;DHT22;7188;56.070;12.698;2023-11-18T15:37:41;1.00;99.90
14210;DHT22;7188;56.070;12.698;2023-11-18T15:40:08;1.00;99.90
14210;DHT22;7188;56.070;12.698;2023-11-18T15:42:42;1.00;99.90
14210;DHT22;7188;56.070;12.698;2023-11-18T15:45:09;1.00;99.90
14210;DHT22;7188;56.070;12.698;2023-11-18T15:47:37;0.90;99.90
14210;DHT22;7188;56.070;12.698;2023-11-18T15:50:06;0.80;99.90
14210;DHT22;7188;56.070;12.698;2023-11-18T15:52:36;0.60;99.90
14210;DHT22;7188;56.070;12.698;2023-11-18T15:55:02;0.60;99.90
14210;DHT22;7188;56.070;12.698;2023-11-18T15:57:38;0.50;99.90
14210;DHT22;7188;56.070;12.698;2023-11-18T16:00:08;0.50;99.90
14210;DHT22;7188;56.070;12.698;2023-11-18T16:02:45;0.40;99.90
14210;DHT22;7188;56.070;12.698;2023-11-18T16:05:15;0.40;99.90
14210;DHT22;7188;56.070;12.698;2023-11-18T16:07:46;0.30;99.90
14210;DHT22;7188;56.070;12.698;2023-11-18T16:10:13;0.30;99.90
14210;DHT22;7188;56.070;12.698;2023-11-18T16:12:45;0.30;99.90
14210;DHT22;7188;56.070;12.698;2023-11-18T16:15:18;0.40;99.90
14210;DHT22;7188;56.070;12.698;2023-11-18T16:17:45;0.40;99.90
14210;DHT22;7188;56.070;12.698;2023-11-18T16:20:12;0.60;99.90
14210;DHT22;7188;56.070;12.698;2023-11-18T16:22:41;0.50;99.90
14210;DHT22;7188;56.070;12.698;2023-11-18T16:25:07;0.40;99.90
14210;DHT22;7188;56.070;12.698;2023-11-18T16:27:33;0.30;99.90